Flight Track Log - Related Links

Times and Time Zones

All times are in EDT time to prevent confusion due to time zone crossing. See the SWA561 flight status page for this flight to view local times or setup timezone preferences in your user account.

Time Position Orientation Groundspeed Altitude Reporting Facility
EDT Latitude Longitude Course Direction KTS MPH feet Rate Location/Type
Sun 11:31:05 PM 33.9444 -118.4692 287° West 177 204 1,900  Level Los Angeles Center
Sun 11:32:06 PM 33.9369 -118.5489 264° West 231 266 4,900 2,976 Climbing Los Angeles Center
Sun 11:33:08 PM 33.9292 -118.6375 264° West 263 303 8,000 2,903 Climbing Los Angeles Center
Sun 11:34:10 PM 33.9169 -118.7361 262° West 276 318 10,900 2,177 Climbing Los Angeles Center
Sun 11:35:12 PM 33.9081 -118.8308 264° West 334 384 12,500 2,855 Climbing Los Angeles Center
Sun 11:36:00 PM 34.0868 -118.9473 287° West  Level FlightAware Approximate
Sun 11:36:14 PM 33.9358 -118.9658 284° West 347 399 16,800  Level Los Angeles Center
Sun 11:37:16 PM 33.9978 -119.0617 308° West 369 425 19,600 2,710 Climbing Los Angeles Center
Sun 11:38:18 PM 34.0744 -119.1489 317° Northwest 376 433 22,400 2,439 Climbing Los Angeles Center
Sun 11:39:19 PM 34.1522 -119.2386 316° Northwest 384 442 24,600 2,146 Climbing Los Angeles Center
Sun 11:40:21 PM 34.2325 -119.3314 316° Northwest 397 457 26,800 2,032 Climbing Los Angeles Center
Sun 11:41:23 PM 34.3133 -119.4256 316° Northwest 402 463 28,800 2,371 Climbing Los Angeles Center
Sun 11:42:25 PM 34.3931 -119.5158 317° Northwest 393 452 31,700 2,758 Climbing Los Angeles Center
Sun 11:43:27 PM 34.4794 -119.6178 316° Northwest 365 420 34,500 1,984 Climbing Los Angeles Center
Sun 11:44:29 PM 34.5506 -119.6994 317° Northwest 354 407 35,800 726 Climbing Los Angeles Center
Sun 11:45:31 PM 34.6186 -119.7764 317° Northwest 360 414 36,000 97 Climbing Los Angeles Center
Sun 11:46:33 PM 34.6936 -119.8622 317° Northwest 369 425 36,000 -49 Level Los Angeles Center
Sun 11:47:34 PM 34.7817 -119.9644 316° Northwest 366 421 35,900  Descending Los Angeles Center
Sun 11:48:36 PM 34.8547 -120.0506 316° Northwest 366 421 36,000 48 Climbing Los Angeles Center
Sun 11:49:38 PM 34.9222 -120.1283 317° Northwest 367 422 36,000  Level Los Angeles Center
Sun 11:50:40 PM 34.9939 -120.2131 316° Northwest 363 418 36,000  Level Los Angeles Center
Sun 11:51:42 PM 35.0806 -120.3156 316° Northwest 362 417 36,000  Level Los Angeles Center
Sun 11:52:43 PM 35.1531 -120.3994 317° Northwest 361 415 36,000  Level Los Angeles Center
Sun 11:53:57 PM 35.2233 -120.4853 315° West 360 414 36,000 -88 Level Los Angeles Center
Sun 11:54:59 PM 35.3078 -120.5858 316° Northwest 356 410 35,800 -581 Descending Los Angeles Center
Sun 11:56:01 PM 35.3775 -120.6681 316° Northwest 351 404 34,800 -1,077 Descending Los Angeles Center
Sun 11:56:17 PM 35.4008 -120.6981 314° West 330 380 34,400 -615 Descending Oakland Center
Sun 11:57:19 PM 35.4675 -120.7764 316° Northwest 326 375 34,000 -195 Descending Oakland Center
Sun 11:58:20 PM 35.5344 -120.8569 316° Northwest 333 383 34,000  Level Oakland Center
Sun 11:59:21 PM 35.6014 -120.9383 315° West 336 387 34,000  Level Oakland Center
Mon 12:00:22 AM 35.6681 -121.0194 315° West 336 387 34,000  Level Oakland Center
Mon 12:01:23 AM 35.7353 -121.0997 316° Northwest 337 388 34,000  Level Oakland Center
Mon 12:02:24 AM 35.8028 -121.1800 316° Northwest 337 388 34,000  Level Oakland Center
Mon 12:03:25 AM 35.8683 -121.2619 315° West 336 387 34,000 -98 Level Oakland Center
Mon 12:04:26 AM 35.9306 -121.3447 313° West 329 379 33,800 -787 Descending Oakland Center
Mon 12:05:27 AM 35.9392 -121.4822 274° West 335 386 32,400 -1,180 Descending Oakland Center
Mon 12:06:28 AM 35.9453 -121.5903 274° West 322 371 31,400 -984 Descending Oakland Center
Mon 12:07:29 AM 35.9517 -121.6964 274° West 315 362 30,400 -1,024 Descending Oakland Center
Mon 12:08:31 AM 35.9983 -121.7675 309° West 308 354 29,300 -1,024 Descending Oakland Center
Mon 12:09:32 AM 36.0817 -121.7869 349° North 305 351 28,300 -934 Descending Oakland Center
Mon 12:10:33 AM 36.1631 -121.8097 347° North 306 352 27,400 -934 Descending Oakland Center
Mon 12:11:34 AM 36.2439 -121.8314 348° North 301 346 26,400 -1,033 Descending Oakland Center
Mon 12:12:35 AM 36.3253 -121.8522 348° North 298 343 25,300 -1,033 Descending Oakland Center
Mon 12:13:36 AM 36.4061 -121.8731 348° North 297 342 24,300 -1,377 Descending Oakland Center
Mon 12:14:37 AM 36.5000 -121.9006 347° North 290 334 22,500 -1,672 Descending Oakland Center
Mon 12:15:38 AM 36.5767 -121.9208 348° North 283 326 20,900 -1,561 Descending Oakland Center
Mon 12:16:40 AM 36.6519 -121.9400 348° North 276 318 19,300 -1,565 Descending Oakland Center
Mon 12:17:10 AM 36.7000 -121.9500 351° North 292 336 18,500 -1,714 Descending Northern Cal TRACON
Mon 12:18:04 AM 36.7667 -121.9667 349° North 292 336 16,900 -1,684 Descending Northern Cal TRACON
Mon 12:19:04 AM 36.8500 -121.9833 351° North 284 327 15,300 -1,576 Descending Northern Cal TRACON
Mon 12:19:43 AM 36.8883 -122.0008 340° North 283 326 14,300 -1,500 Descending Oakland Center
Mon 12:20:44 AM 36.9622 -122.0192 349° North 274 315 12,800 -1,131 Descending Oakland Center
Mon 12:21:45 AM 37.0358 -122.0397 347° North 270 311 12,000 -689 Descending Oakland Center
Mon 12:22:46 AM 37.1058 -122.0575 349° North 259 298 11,400 -934 Descending Oakland Center
Mon 12:23:47 AM 37.1689 -122.0747 348° North 235 270 10,100 -689 Descending Oakland Center
Mon 12:24:48 AM 37.2150 -122.1044 333° Northwest 196 226 10,000 -393 Descending Oakland Center
Mon 12:25:49 AM 37.2347 -122.1794 288° West 183 211 9,300 -689 Descending Oakland Center
Mon 12:26:50 AM 37.2531 -122.2436 290° West 192 221 8,600 -738 Descending Oakland Center
Mon 12:27:51 AM 37.2686 -122.3061 287° West 188 216 7,800 -836 Descending Oakland Center
Mon 12:28:52 AM 37.2825 -122.3594 288° West 167 192 6,900 -934 Descending Oakland Center
Mon 12:29:53 AM 37.3317 -122.3386 19° North 201 231 5,900 -492 Descending Oakland Center
Mon 12:30:54 AM 37.3806 -122.3081 26° Northeast 199 229 5,900  Level Oakland Center
Mon 12:31:55 AM 37.4275 -122.2769 28° Northeast 194 223 5,900  Level Oakland Center
Mon 12:32:56 AM 37.4714 -122.2325 39° Northeast 209 241 5,900 -148 Level Oakland Center
Mon 12:33:57 AM 37.4517 -122.1567 108° East 226 260 5,600 -639 Descending Oakland Center
Mon 12:34:58 AM 37.4239 -122.0811 115° Southeast 234 269 4,600 -787 Descending Oakland Center
Mon 12:35:59 AM 37.4578 -122.0339 48° Northeast 209 241 4,000 -295 Descending Oakland Center
Mon 12:37:00 AM 37.4886 -122.0697 317° Northwest 179 206 4,000  Level Oakland Center
Mon 12:38:01 AM 37.5133 -122.1286 298° West 163 188 4,000 -393 Level Oakland Center
Mon 12:39:02 AM 37.5333 -122.1753 298° West 157 181 3,200 -780 Descending Oakland Center
Mon 12:40:04 AM 37.5517 -122.2189 298° West 150 173 2,400 -738 Descending Oakland Center
Mon 12:41:04 AM 37.5692 -122.2619 297° West 143 165 1,700 -744 Descending Oakland Center
Mon 12:42:05 AM 37.5881 -122.3058 299° West 142 163 900 -738 Descending Oakland Center
Mon 12:43:06 AM 37.6058 -122.3486 298° West 140 161 200 -689 Descending Oakland Center

Login

Don't have an account? Register now (free) for customized features, flight alerts, and more!